Time;durP1;ratioP1;P1;durP2;ratioP2;P2;SDS_P1;SDS_P2;PMS_P1;PMS_P2;Temp;Humidity;BMP_temperature;BMP_pressure;BME280_temperature;BME280_humidity;BME280_pressure;Samples;Min_cycle;Max_cycle;Signal;HPM_P1;HPM_P2
2022/05/26 00:01:21;;;;;;;4.10;2.70;;;11.40;96.40;;;;;;5077010;28;20170;-60
2022/05/26 00:03:48;;;;;;;5.60;2.40;;;11.40;96.40;;;;;;5093920;28;21091;-59
2022/05/26 00:06:17;;;;;;;3.77;2.83;;;11.40;96.70;;;;;;5083644;28;20420;-61
2022/05/26 00:08:44;;;;;;;4.60;2.67;;;11.30;96.40;;;;;;5104185;28;20422;-60
2022/05/26 00:11:12;;;;;;;4.17;2.80;;;11.30;96.70;;;;;;5064092;28;20427;-60
2022/05/26 00:13:39;;;;;;;3.23;2.93;;;11.30;97.10;;;;;;5077987;28;20434;-61
2022/05/26 00:16:06;;;;;;;4.30;2.97;;;11.30;97.50;;;;;;5095101;28;20395;-60
2022/05/26 00:18:31;;;;;;;4.97;2.73;;;11.20;97.60;;;;;;5108032;28;20410;-59
2022/05/26 00:20:57;;;;;;;3.37;2.70;;;11.20;98.00;;;;;;5057254;28;20432;-60
2022/05/26 00:23:23;;;;;;;5.23;2.57;;;11.10;98.00;;;;;;5089623;28;20184;-59
2022/05/26 00:25:49;;;;;;;4.27;2.90;;;11.10;97.90;;;;;;5071160;28;20209;-59
2022/05/26 00:28:15;;;;;;;4.70;2.50;;;11.00;97.70;;;;;;5072145;28;20459;-60
2022/05/26 00:30:41;;;;;;;10.60;3.00;;;11.00;97.50;;;;;;5092995;28;20184;-61
2022/05/26 00:33:09;;;;;;;4.13;2.93;;;10.90;97.30;;;;;;5117256;22;20433;-58
2022/05/26 00:35:36;;;;;;;5.67;2.73;;;10.80;98.20;;;;;;5065756;28;20175;-56
2022/05/26 00:38:07;;;;;;;3.63;3.00;;;10.80;98.70;;;;;;5069768;28;20881;-56
2022/05/26 00:40:33;;;;;;;3.93;2.87;;;10.80;99.10;;;;;;5069104;28;20552;-56
2022/05/26 00:42:59;;;;;;;7.67;3.47;;;10.70;99.30;;;;;;5071575;28;21016;-56
2022/05/26 00:45:32;;;;;;;3.10;2.80;;;10.70;99.30;;;;;;5084904;28;21045;-56
2022/05/26 00:47:59;;;;;;;2.83;2.63;;;10.70;99.50;;;;;;5079806;28;20466;-56
2022/05/26 00:50:28;;;;;;;4.30;2.63;;;10.70;99.90;;;;;;5081017;28;21183;-56
2022/05/26 00:53:03;;;;;;;6.03;2.90;;;10.60;99.90;;;;;;5086019;28;20519;-56
2022/05/26 00:55:35;;;;;;;4.13;2.60;;;10.60;99.90;;;;;;5093330;28;20419;-55
2022/05/26 00:58:14;;;;;;;4.90;2.97;;;10.60;99.90;;;;;;5089035;28;20425;-56
2022/05/26 01:00:40;;;;;;;3.70;2.67;;;10.60;99.90;;;;;;5085050;28;20462;-55
2022/05/26 01:03:40;;;;;;;5.00;3.50;;;10.60;99.90;;;;;;5089141;28;20416;-55
2022/05/26 01:06:20;;;;;;;3.23;2.70;;;10.50;99.90;;;;;;5068806;28;20445;-56
2022/05/26 01:08:54;;;;;;;4.67;3.33;;;10.50;99.90;;;;;;5083090;28;20467;-56
2022/05/26 01:11:22;;;;;;;3.23;2.93;;;10.50;99.90;;;;;;5089031;28;20521;-56
2022/05/26 01:13:53;;;;;;;4.37;3.10;;;10.40;99.90;;;;;;5091520;28;20445;-57
2022/05/26 01:16:31;;;;;;;6.97;2.97;;;10.40;99.90;;;;;;5088761;28;20508;-57
2022/05/26 01:19:27;;;;;;;3.37;2.50;;;10.40;99.90;;;;;;5085298;28;20459;-58
2022/05/26 01:22:22;;;;;;;3.30;2.57;;;10.30;99.90;;;;;;5088628;28;20416;-57
2022/05/26 01:25:14;;;;;;;4.50;2.67;;;10.30;99.90;;;;;;5033016;28;20441;-57
2022/05/26 01:27:42;;;;;;;3.00;2.70;;;10.30;99.90;;;;;;5084751;28;20431;-57
2022/05/26 01:30:23;;;;;;;3.73;3.10;;;10.20;99.90;;;;;;5089361;28;20415;-57
2022/05/26 01:33:10;;;;;;;4.57;2.80;;;10.20;99.90;;;;;;5077266;28;20677;-56
2022/05/26 01:35:38;;;;;;;5.80;2.83;;;10.20;99.90;;;;;;5078370;28;20564;-57
2022/05/26 01:38:29;;;;;;;6.70;3.03;;;10.20;99.90;;;;;;5081365;28;20424;-58
2022/05/26 01:41:07;;;;;;;3.47;3.00;;;10.20;99.90;;;;;;5076930;28;20781;-58
2022/05/26 01:43:57;;;;;;;3.93;2.50;;;10.20;99.90;;;;;;5084567;28;20997;-57
2022/05/26 01:46:38;;;;;;;3.03;2.80;;;10.20;99.90;;;;;;5078025;28;20396;-57
2022/05/26 01:49:34;;;;;;;5.20;2.90;;;10.30;99.90;;;;;;5091330;28;20527;-58
2022/05/26 01:52:10;;;;;;;3.43;3.10;;;10.40;99.90;;;;;;5067210;28;20432;-57
2022/05/26 01:54:57;;;;;;;3.10;2.60;;;10.40;99.90;;;;;;5085216;28;20447;-57
2022/05/26 01:57:40;;;;;;;7.33;3.10;;;10.50;99.90;;;;;;5090856;28;20494;-57
2022/05/26 02:00:09;;;;;;;3.80;3.00;;;10.50;99.90;;;;;;5073539;28;20826;-57
2022/05/26 02:02:40;;;;;;;4.33;2.83;;;10.60;99.90;;;;;;5086478;28;20436;-57
2022/05/26 02:05:23;;;;;;;3.90;2.70;;;10.60;99.90;;;;;;5085495;28;20475;-56
2022/05/26 02:08:06;;;;;;;4.07;3.30;;;10.60;99.90;;;;;;5086998;28;20447;-56
2022/05/26 02:11:23;;;;;;;6.13;2.93;;;10.60;99.90;;;;;;5086406;28;20468;-57
2022/05/26 02:13:53;;;;;;;3.23;2.90;;;10.60;99.90;;;;;;5074496;28;20460;-56
2022/05/26 02:16:41;;;;;;;5.30;2.90;;;10.50;99.90;;;;;;5081467;28;20846;-57
2022/05/26 02:19:11;;;;;;;3.57;2.80;;;10.50;99.90;;;;;;5082798;28;20602;-57
2022/05/26 02:21:57;;;;;;;6.90;3.00;;;10.50;99.90;;;;;;5082246;28;20424;-58
2022/05/26 02:24:34;;;;;;;8.23;3.20;;;10.40;99.90;;;;;;5079267;28;20449;-57
2022/05/26 02:27:00;;;;;;;8.03;3.20;;;10.30;99.90;;;;;;5080032;28;20436;-57
2022/05/26 02:32:11;;;;;;;3.03;2.50;;;10.20;99.90;;;;;;5071865;28;20292;-57
2022/05/26 02:34:39;;;;;;;3.43;2.93;;;10.10;99.90;;;;;;5084454;28;20451;-57
2022/05/26 02:37:07;;;;;;;4.23;2.57;;;10.10;99.90;;;;;;5087127;28;20959;-57
2022/05/26 02:39:32;;;;;;;9.10;2.97;;;10.10;99.90;;;;;;5087539;28;20454;-56
2022/05/26 02:41:59;;;;;;;2.90;2.60;;;10.00;99.90;;;;;;5084682;28;20476;-57
2022/05/26 02:44:26;;;;;;;2.83;2.43;;;10.00;99.90;;;;;;5086439;28;20639;-57
2022/05/26 02:47:10;;;;;;;2.80;2.50;;;10.00;99.90;;;;;;5086302;28;20435;-56
2022/05/26 02:49:45;;;;;;;4.50;2.80;;;9.90;99.90;;;;;;5085615;28;20900;-57
2022/05/26 02:52:34;;;;;;;5.47;2.90;;;9.90;99.90;;;;;;5086573;28;20451;-57
2022/05/26 02:55:18;;;;;;;7.97;3.17;;;9.90;99.90;;;;;;5065829;28;20448;-58
2022/05/26 02:57:59;;;;;;;3.93;3.03;;;9.90;99.90;;;;;;5085675;28;20487;-55
2022/05/26 03:00:35;;;;;;;4.70;2.90;;;9.90;99.90;;;;;;5082125;28;20463;-56
2022/05/26 03:03:16;;;;;;;3.37;3.07;;;9.90;99.90;;;;;;5080993;28;20467;-58
2022/05/26 03:05:59;;;;;;;5.90;2.77;;;9.90;99.90;;;;;;5088555;28;20416;-58
2022/05/26 03:08:28;;;;;;;4.83;2.83;;;9.90;99.90;;;;;;5087689;28;20491;-57
2022/05/26 03:11:05;;;;;;;3.83;2.83;;;9.90;99.90;;;;;;5084363;28;20439;-58
2022/05/26 03:13:30;;;;;;;4.80;3.00;;;9.90;99.90;;;;;;5089380;28;20499;-58
2022/05/26 03:15:56;;;;;;;2.83;2.63;;;9.90;99.90;;;;;;5078792;28;20429;-58
2022/05/26 03:18:22;;;;;;;5.30;3.10;;;9.80;99.90;;;;;;5069090;28;20202;-57
2022/05/26 03:20:48;;;;;;;3.13;2.80;;;9.80;99.90;;;;;;5079945;28;20498;-58
2022/05/26 03:23:13;;;;;;;2.97;2.70;;;9.80;99.90;;;;;;5087770;28;20197;-58
2022/05/26 03:25:47;;;;;;;3.83;3.00;;;9.80;99.90;;;;;;5093789;28;20173;-58
2022/05/26 03:28:13;;;;;;;2.77;2.50;;;9.80;99.90;;;;;;5089994;28;20787;-58
2022/05/26 03:30:39;;;;;;;3.77;2.70;;;9.80;99.90;;;;;;5076257;28;20427;-59
2022/05/26 03:33:05;;;;;;;4.47;2.70;;;9.80;99.90;;;;;;5108235;28;20398;-58
2022/05/26 03:40:59;;;;;;;2.90;2.70;;;9.80;99.90;;;;;;5078932;28;21024;-58
2022/05/26 03:43:46;;;;;;;3.63;2.93;;;9.90;99.90;;;;;;5092119;28;20443;-58
2022/05/26 03:46:13;;;;;;;3.77;2.93;;;9.80;99.90;;;;;;5088475;28;20174;-57
2022/05/26 03:48:40;;;;;;;4.20;2.70;;;9.90;99.90;;;;;;5083824;28;20436;-58
2022/05/26 03:51:06;;;;;;;3.07;2.77;;;9.90;99.90;;;;;;5086766;28;20419;-57
2022/05/26 03:53:33;;;;;;;3.07;2.50;;;9.80;99.90;;;;;;5090827;28;20458;-57
2022/05/26 03:55:59;;;;;;;4.83;2.50;;;9.80;99.90;;;;;;5083375;28;20877;-58
2022/05/26 03:58:25;;;;;;;3.07;2.73;;;9.80;99.90;;;;;;5080724;28;20454;-59
2022/05/26 04:00:51;;;;;;;5.33;3.13;;;9.90;99.90;;;;;;5081105;28;20546;-57
2022/05/26 04:03:17;;;;;;;2.87;2.67;;;9.80;99.90;;;;;;5093892;28;20201;-58
2022/05/26 04:05:43;;;;;;;3.13;2.80;;;9.90;99.90;;;;;;5092479;28;20484;-58
2022/05/26 04:08:09;;;;;;;3.73;2.83;;;9.90;99.90;;;;;;5090006;28;20931;-57
2022/05/26 04:10:35;;;;;;;3.07;2.83;;;10.00;99.90;;;;;;5090214;28;20180;-57
2022/05/26 04:13:01;;;;;;;3.60;2.83;;;10.00;99.90;;;;;;5088074;28;20186;-57
2022/05/26 04:15:27;;;;;;;3.40;3.03;;;10.00;99.90;;;;;;5080870;28;20580;-58
2022/05/26 04:17:52;;;;;;;4.87;3.30;;;10.00;99.90;;;;;;5088964;28;20195;-59
2022/05/26 04:20:21;;;;;;;3.23;2.93;;;10.00;99.90;;;;;;5096169;28;20300;-56
2022/05/26 04:22:46;;;;;;;4.37;2.93;;;10.10;99.90;;;;;;5080617;28;20637;-59
2022/05/26 04:25:13;;;;;;;5.40;3.47;;;10.10;99.90;;;;;;5084347;28;20456;-60
2022/05/26 04:27:39;;;;;;;3.60;2.90;;;10.10;99.90;;;;;;5088265;28;20181;-56
2022/05/26 04:30:07;;;;;;;3.30;3.00;;;10.10;99.90;;;;;;5093481;28;20416;-58
2022/05/26 04:32:34;;;;;;;4.17;2.80;;;10.10;99.90;;;;;;5071840;28;20419;-59
2022/05/26 04:34:59;;;;;;;3.33;3.03;;;10.10;99.90;;;;;;5079526;28;20483;-58
2022/05/26 04:37:26;;;;;;;3.43;2.83;;;10.00;99.90;;;;;;5088709;28;20446;-56
2022/05/26 04:39:55;;;;;;;5.73;3.03;;;10.00;99.90;;;;;;5094491;28;20258;-57
2022/05/26 04:42:22;;;;;;;3.17;2.87;;;10.00;99.90;;;;;;5082714;28;21069;-56
2022/05/26 04:44:47;;;;;;;6.40;3.27;;;10.10;99.90;;;;;;5086400;28;20562;-57
2022/05/26 04:47:14;;;;;;;3.70;2.93;;;10.10;99.90;;;;;;5088606;28;20511;-57
2022/05/26 04:49:41;;;;;;;4.77;3.10;;;10.10;99.90;;;;;;5076687;28;20695;-59
2022/05/26 04:52:12;;;;;;;3.33;3.00;;;10.10;99.90;;;;;;5071208;28;20424;-58
2022/05/26 04:54:38;;;;;;;4.33;2.57;;;10.10;99.90;;;;;;5068070;28;20421;-57
2022/05/26 04:57:06;;;;;;;3.30;3.00;;;10.10;99.90;;;;;;5082860;28;20425;-57
2022/05/26 04:59:32;;;;;;;6.80;2.97;;;10.20;99.90;;;;;;5081115;28;20456;-56
2022/05/26 05:01:58;;;;;;;6.00;2.87;;;10.30;99.90;;;;;;5085137;28;20424;-56
2022/05/26 05:04:28;;;;;;;3.57;2.73;;;10.40;99.90;;;;;;5087437;28;20468;-56
2022/05/26 05:06:55;;;;;;;4.93;3.03;;;10.50;99.90;;;;;;5080023;28;20491;-55
2022/05/26 05:09:21;;;;;;;4.30;3.70;;;10.60;99.90;;;;;;5089568;28;20930;-57
2022/05/26 05:11:47;;;;;;;4.13;3.30;;;10.60;99.90;;;;;;5087022;28;20423;-57
2022/05/26 05:14:13;;;;;;;3.00;2.30;;;10.70;99.90;;;;;;5088876;28;20447;-56
2022/05/26 05:16:43;;;;;;;3.60;2.77;;;10.70;99.90;;;;;;5086009;28;20537;-57
2022/05/26 05:19:11;;;;;;;4.90;3.40;;;10.80;99.90;;;;;;5091548;28;20615;-56
2022/05/26 05:21:47;;;;;;;6.93;3.03;;;10.90;99.90;;;;;;5087836;28;20416;-56
2022/05/26 05:24:37;;;;;;;5.13;3.10;;;11.00;99.90;;;;;;5075405;28;20964;-57
2022/05/26 05:27:10;;;;;;;3.70;2.60;;;11.10;99.90;;;;;;5072543;28;20941;-56
2022/05/26 05:29:39;;;;;;;4.73;3.03;;;11.10;99.90;;;;;;5084340;28;20517;-56
2022/05/26 05:32:31;;;;;;;3.10;2.80;;;11.20;99.90;;;;;;5088698;28;20415;-57
2022/05/26 05:35:08;;;;;;;4.37;3.13;;;11.20;99.90;;;;;;5086205;28;20463;-57
2022/05/26 05:37:34;;;;;;;4.20;3.37;;;11.20;99.90;;;;;;5088948;28;20420;-56
2022/05/26 05:40:01;;;;;;;3.97;3.03;;;11.30;99.90;;;;;;5095228;28;20448;-57
2022/05/26 05:42:28;;;;;;;5.93;3.63;;;11.30;99.90;;;;;;5087999;28;20404;-56
2022/05/26 05:44:54;;;;;;;8.10;3.13;;;11.30;99.90;;;;;;5080789;28;20496;-56
2022/05/26 05:47:20;;;;;;;3.03;2.83;;;11.40;99.90;;;;;;5089392;28;20872;-56
2022/05/26 05:49:47;;;;;;;5.03;3.30;;;11.50;99.90;;;;;;5108754;28;20173;-57
2022/05/26 05:52:18;;;;;;;6.07;3.10;;;11.60;99.90;;;;;;5086010;28;20814;-57
2022/05/26 05:54:43;;;;;;;3.80;3.27;;;11.80;99.90;;;;;;5085293;28;20947;-56
2022/05/26 05:57:09;;;;;;;4.63;3.20;;;11.90;99.90;;;;;;5086246;28;20501;-56
2022/05/26 05:59:35;;;;;;;3.07;2.77;;;12.00;99.90;;;;;;5086621;28;20287;-56
2022/05/26 06:02:00;;;;;;;4.03;2.80;;;12.10;99.10;;;;;;5088318;28;20225;-55
2022/05/26 06:04:26;;;;;;;3.33;3.03;;;12.10;99.60;;;;;;5087874;28;20281;-56
2022/05/26 06:06:52;;;;;;;4.17;3.07;;;12.20;99.30;;;;;;5089438;28;20726;-55
2022/05/26 06:09:20;;;;;;;4.40;3.23;;;12.20;97.10;;;;;;5087148;28;20336;-55
2022/05/26 06:11:46;;;;;;;5.23;3.03;;;12.40;97.40;;;;;;5087820;28;20256;-56
2022/05/26 06:14:12;;;;;;;3.10;2.80;;;12.40;96.00;;;;;;5084115;28;21063;-56
2022/05/26 06:16:38;;;;;;;4.20;3.00;;;12.50;96.00;;;;;;5091997;28;20515;-56
2022/05/26 06:19:04;;;;;;;3.13;2.83;;;12.60;96.50;;;;;;5086475;28;20194;-57
2022/05/26 06:21:31;;;;;;;4.23;3.30;;;12.70;97.10;;;;;;5087748;28;20174;-56
2022/05/26 06:23:57;;;;;;;3.00;2.73;;;12.90;98.40;;;;;;5085754;28;20185;-55
2022/05/26 06:26:29;;;;;;;4.23;3.00;;;13.00;97.50;;;;;;5085761;28;20431;-56
2022/05/26 06:37:13;;;;;;;3.80;2.70;;;13.40;96.80;;;;;;5092452;28;20454;-55
2022/05/26 06:37:14;;;;;;;3.97;2.80;;;13.80;90.60;;;;;;5076832;28;20446;-55
2022/05/26 06:39:40;;;;;;;2.70;2.20;;;13.90;85.90;;;;;;5087592;28;20462;-56
2022/05/26 06:42:07;;;;;;;3.83;2.63;;;14.00;84.20;;;;;;5085774;28;20439;-56
2022/05/26 06:44:40;;;;;;;4.27;2.27;;;14.10;84.80;;;;;;5081749;28;20202;-55
2022/05/26 06:47:17;;;;;;;2.57;2.37;;;14.30;81.00;;;;;;5088490;28;20432;-56
2022/05/26 06:49:44;;;;;;;3.60;2.30;;;14.40;75.90;;;;;;5091299;28;20426;-57
2022/05/26 06:52:11;;;;;;;7.40;2.40;;;14.40;73.60;;;;;;5084523;28;20428;-55
2022/05/26 06:54:39;;;;;;;2.10;1.90;;;14.50;74.50;;;;;;5067441;28;20519;-56
2022/05/26 06:57:06;;;;;;;2.40;2.07;;;14.60;74.80;;;;;;5086841;28;20497;-55
2022/05/26 06:59:32;;;;;;;6.43;2.27;;;14.80;72.40;;;;;;5083590;28;20515;-55
2022/05/26 07:01:58;;;;;;;7.77;2.10;;;14.90;70.60;;;;;;5083196;28;20480;-55
2022/05/26 07:04:24;;;;;;;5.00;1.90;;;15.00;67.00;;;;;;5084699;28;20526;-57
2022/05/26 07:06:51;;;;;;;3.27;2.17;;;15.10;67.00;;;;;;5089122;28;20174;-56
2022/05/26 07:09:18;;;;;;;2.33;2.13;;;15.20;67.80;;;;;;5088112;28;20972;-56
2022/05/26 07:11:44;;;;;;;2.67;1.60;;;15.40;68.00;;;;;;5089905;28;20454;-56
2022/05/26 07:14:10;;;;;;;3.53;1.30;;;15.50;65.90;;;;;;5085921;28;20454;-57
2022/05/26 07:16:35;;;;;;;3.00;1.97;;;15.60;61.90;;;;;;5086487;28;20178;-57
2022/05/26 07:19:01;;;;;;;5.03;2.03;;;15.70;61.30;;;;;;5087203;28;20478;-57
2022/05/26 07:21:27;;;;;;;2.40;1.20;;;15.80;60.00;;;;;;5088625;28;20238;-56
2022/05/26 07:23:53;;;;;;;2.80;1.20;;;15.90;59.40;;;;;;5089908;28;20185;-56
2022/05/26 07:26:19;;;;;;;2.50;1.30;;;16.00;58.40;;;;;;5090344;28;20169;-56
2022/05/26 07:28:44;;;;;;;1.97;1.23;;;16.00;57.90;;;;;;5087907;28;20768;-57
2022/05/26 07:31:12;;;;;;;2.50;1.23;;;16.10;57.70;;;;;;5089248;28;20423;-56
2022/05/26 07:33:38;;;;;;;1.40;1.07;;;16.10;57.20;;;;;;5088271;28;20221;-56
2022/05/26 07:36:05;;;;;;;4.97;1.40;;;16.10;56.80;;;;;;5086054;28;20932;-56
2022/05/26 07:41:22;;;;;;;1.07;0.97;;;16.20;54.50;;;;;;5086497;28;20529;-57
2022/05/26 07:43:52;;;;;;;2.87;1.20;;;16.30;53.40;;;;;;5085244;28;20500;-56
2022/05/26 07:46:20;;;;;;;1.63;1.03;;;16.20;53.60;;;;;;5086797;28;21395;-56
2022/05/26 07:48:47;;;;;;;1.63;1.20;;;16.20;53.80;;;;;;5084564;28;20458;-56
2022/05/26 07:51:13;;;;;;;3.40;1.30;;;16.20;54.50;;;;;;5094960;22;20432;-62
2022/05/26 07:53:38;;;;;;;1.23;1.10;;;16.30;54.20;;;;;;5065920;28;21077;-60
2022/05/26 07:56:05;;;;;;;2.73;1.10;;;16.30;54.00;;;;;;5076704;28;20181;-60
2022/05/26 07:58:30;;;;;;;1.30;1.00;;;16.40;54.40;;;;;;5072379;28;20594;-60
2022/05/26 08:00:56;;;;;;;5.77;1.30;;;16.40;54.80;;;;;;5070355;28;20467;-60
2022/05/26 08:03:22;;;;;;;9.03;1.20;;;16.50;54.40;;;;;;5073353;28;20235;-60
2022/05/26 08:05:48;;;;;;;3.10;1.20;;;16.60;53.20;;;;;;5079620;28;20174;-60
2022/05/26 08:08:14;;;;;;;2.60;1.10;;;16.70;53.00;;;;;;5071648;28;20425;-60
2022/05/26 08:10:40;;;;;;;1.37;1.27;;;16.70;51.70;;;;;;5064698;28;20837;-61
2022/05/26 08:13:06;;;;;;;3.13;1.30;;;16.70;52.40;;;;;;5069854;28;20224;-60
2022/05/26 08:15:33;;;;;;;0.97;0.87;;;16.80;52.80;;;;;;5080322;28;20736;-60
2022/05/26 08:17:58;;;;;;;1.60;0.97;;;16.90;52.90;;;;;;5069496;28;20578;-60
2022/05/26 08:20:25;;;;;;;1.53;1.30;;;17.10;53.10;;;;;;5065314;28;20944;-61
2022/05/26 08:22:51;;;;;;;1.93;1.00;;;17.20;52.70;;;;;;5067471;28;20209;-60
2022/05/26 08:25:17;;;;;;;2.77;1.20;;;17.20;52.20;;;;;;5072835;28;20431;-58
2022/05/26 08:27:42;;;;;;;5.80;1.70;;;17.20;52.30;;;;;;5070421;28;20437;-58
2022/05/26 08:30:09;;;;;;;1.90;0.90;;;17.30;52.80;;;;;;5057483;28;20552;-59
2022/05/26 08:32:34;;;;;;;2.40;1.27;;;17.40;52.70;;;;;;5065988;28;20210;-59
2022/05/26 08:35:03;;;;;;;2.00;1.40;;;17.40;52.10;;;;;;5072667;28;20448;-58
2022/05/26 08:37:29;;;;;;;1.90;1.13;;;17.40;52.10;;;;;;5064985;28;20206;-58
2022/05/26 08:39:55;;;;;;;3.43;1.30;;;17.30;51.40;;;;;;5067386;28;20903;-61
2022/05/26 08:42:25;;;;;;;3.07;1.23;;;17.40;52.70;;;;;;5061021;28;20243;-63
2022/05/26 08:44:55;;;;;;;1.03;0.93;;;17.50;52.70;;;;;;5067604;28;20213;-63
2022/05/26 08:47:23;;;;;;;1.17;1.10;;;17.60;51.60;;;;;;5069484;28;20459;-61
2022/05/26 08:49:52;;;;;;;5.70;1.10;;;17.70;51.90;;;;;;5066109;28;20444;-61
2022/05/26 08:52:28;;;;;;;1.20;1.10;;;17.70;51.60;;;;;;5067162;28;20492;-61
2022/05/26 08:55:22;;;;;;;1.50;1.40;;;17.70;51.30;;;;;;5065686;28;20436;-61
2022/05/26 08:58:17;;;;;;;4.60;1.40;;;17.60;52.00;;;;;;5060293;28;20536;-61
2022/05/26 09:00:46;;;;;;;1.67;1.10;;;17.50;52.40;;;;;;5055929;28;22590;-61
2022/05/26 09:03:31;;;;;;;2.03;1.10;;;17.40;52.10;;;;;;5064375;28;21262;-62
2022/05/26 09:06:12;;;;;;;1.60;1.20;;;17.30;50.90;;;;;;5066021;28;20520;-62
2022/05/26 09:14:02;;;;;;;1.23;1.00;;;17.10;50.40;;;;;;5064149;28;20432;-62
2022/05/26 09:16:33;;;;;;;6.70;1.27;;;17.10;50.60;;;;;;5074306;28;20444;-61
2022/05/26 09:19:12;;;;;;;1.40;1.00;;;17.20;50.50;;;;;;5061891;28;21006;-61
2022/05/26 09:21:39;;;;;;;1.50;1.00;;;17.20;50.30;;;;;;5063361;28;20487;-64
2022/05/26 09:24:17;;;;;;;3.80;1.30;;;17.30;51.00;;;;;;5062335;28;20436;-61
2022/05/26 09:26:48;;;;;;;1.63;1.10;;;17.40;49.90;;;;;;5062658;28;20424;-62
2022/05/26 09:29:15;;;;;;;9.70;1.00;;;17.50;49.60;;;;;;5061963;28;20845;-62
2022/05/26 09:31:47;;;;;;;2.17;1.10;;;17.60;49.20;;;;;;5060544;28;20503;-61
2022/05/26 09:34:17;;;;;;;1.47;1.03;;;17.60;49.20;;;;;;5057876;28;20477;-60
2022/05/26 09:36:50;;;;;;;1.57;1.07;;;17.60;49.10;;;;;;5062496;28;20485;-62
2022/05/26 09:39:30;;;;;;;2.97;1.23;;;17.70;49.60;;;;;;5062403;28;20964;-59
2022/05/26 09:41:57;;;;;;;1.70;1.20;;;17.80;49.70;;;;;;5062284;28;20555;-59
2022/05/26 09:44:25;;;;;;;3.27;1.43;;;18.20;49.30;;;;;;5062400;28;20421;-61
2022/05/26 09:46:54;;;;;;;1.47;1.10;;;18.50;48.90;;;;;;5059897;28;20435;-61
2022/05/26 09:49:26;;;;;;;2.20;1.00;;;18.60;48.30;;;;;;5054542;28;20441;-59
2022/05/26 09:52:19;;;;;;;1.77;1.03;;;18.60;47.70;;;;;;5057338;28;20464;-62
2022/05/26 09:54:47;;;;;;;1.73;0.80;;;18.60;47.60;;;;;;5061347;28;20437;-59
2022/05/26 09:57:25;;;;;;;1.00;0.90;;;18.50;48.60;;;;;;5058144;28;20998;-62
2022/05/26 09:59:51;;;;;;;4.53;1.10;;;18.40;47.40;;;;;;5060712;28;20467;-62
2022/05/26 10:02:26;;;;;;;3.13;1.50;;;18.40;47.80;;;;;;5061620;28;20457;-61
2022/05/26 10:05:01;;;;;;;3.53;2.03;;;18.30;47.50;;;;;;5060597;28;20202;-61
2022/05/26 10:07:32;;;;;;;2.13;1.47;;;18.20;47.60;;;;;;5060404;28;20489;-62
2022/05/26 10:10:28;;;;;;;3.27;1.70;;;18.20;47.60;;;;;;5055818;28;21278;-60
2022/05/26 10:13:12;;;;;;;1.53;0.83;;;18.20;47.80;;;;;;5063494;28;20968;-61
2022/05/26 10:15:47;;;;;;;2.10;1.00;;;18.30;48.50;;;;;;5059746;28;20547;-62
2022/05/26 10:18:23;;;;;;;0.90;0.90;;;18.50;48.50;;;;;;5061038;28;20428;-61
2022/05/26 10:21:06;;;;;;;1.00;0.90;;;18.60;48.00;;;;;;5056308;28;20521;-63
2022/05/26 10:23:38;;;;;;;3.40;1.17;;;18.80;48.40;;;;;;5056224;28;20472;-59
2022/05/26 10:26:41;;;;;;;10.53;4.00;;;19.10;49.50;;;;;;5056350;28;20440;-60
2022/05/26 10:29:15;;;;;;;5.93;1.63;;;19.50;47.60;;;;;;5052310;28;20433;-61
2022/05/26 10:31:57;;;;;;;1.03;1.03;;;19.50;46.70;;;;;;5062861;28;20443;-59
2022/05/26 10:34:37;;;;;;;4.03;1.30;;;19.50;48.00;;;;;;5057961;28;20485;-58
2022/05/26 10:37:41;;;;;;;4.80;1.80;;;19.50;48.90;;;;;;5059609;28;22429;-59
2022/05/26 10:40:15;;;;;;;5.23;1.10;;;19.50;48.70;;;;;;5044621;28;20479;-61
2022/05/26 10:43:05;;;;;;;1.00;0.90;;;19.40;47.00;;;;;;5059203;28;20458;-61
2022/05/26 10:45:31;;;;;;;1.00;0.90;;;19.30;46.90;;;;;;5055326;28;20448;-60
2022/05/26 10:48:00;;;;;;;1.73;1.10;;;19.10;47.10;;;;;;5062570;28;20526;-63
2022/05/26 10:50:39;;;;;;;5.77;1.43;;;19.10;47.40;;;;;;5058426;28;20202;-63
2022/05/26 10:53:14;;;;;;;2.67;1.30;;;19.10;47.30;;;;;;5063676;28;20480;-61
2022/05/26 10:55:54;;;;;;;2.40;1.93;;;19.10;46.50;;;;;;5057613;28;20423;-62
2022/05/26 10:58:42;;;;;;;1.17;1.07;;;19.10;46.60;;;;;;5055845;28;20458;-63
2022/05/26 11:01:28;;;;;;;1.77;1.00;;;19.00;46.50;;;;;;5053760;28;20566;-63
2022/05/26 11:04:01;;;;;;;1.30;1.10;;;19.00;47.00;;;;;;5014135;28;20452;-63
2022/05/26 11:06:31;;;;;;;1.63;1.00;;;19.10;47.50;;;;;;5063216;28;20448;-61
2022/05/26 11:09:07;;;;;;;4.30;1.30;;;19.20;48.40;;;;;;5065416;28;20447;-62
2022/05/26 11:11:36;;;;;;;1.90;1.17;;;19.20;48.10;;;;;;5057169;28;20463;-62
2022/05/26 11:17:44;;;;;;;1.13;1.03;;;19.10;47.10;;;;;;5059185;28;20979;-62
2022/05/26 11:20:19;;;;;;;6.53;2.90;;;19.20;47.10;;;;;;5071456;28;20806;-63
2022/05/26 11:22:48;;;;;;;2.23;1.33;;;19.20;48.10;;;;;;5060245;28;20828;-64
2022/05/26 11:25:25;;;;;;;1.33;0.90;;;19.20;47.90;;;;;;5055655;28;20459;-60
2022/05/26 11:27:59;;;;;;;1.17;0.90;;;19.30;48.30;;;;;;5062120;28;21058;-63
2022/05/26 11:36:41;;;;;;;3.87;1.10;;;19.80;47.40;;;;;;5055231;28;20431;-60
2022/05/26 11:39:16;;;;;;;1.80;1.13;;;19.80;46.60;;;;;;5053497;28;20444;-61
2022/05/26 11:41:53;;;;;;;1.43;1.00;;;19.80;47.40;;;;;;5054526;28;20471;-60
2022/05/26 11:44:34;;;;;;;4.83;3.30;;;19.70;47.70;;;;;;5056362;28;20420;-61
2022/05/26 11:47:31;;;;;;;3.13;1.40;;;19.60;48.10;;;;;;5057922;28;20945;-63
2022/05/26 11:49:56;;;;;;;1.97;1.30;;;19.60;48.00;;;;;;5056616;28;20523;-59
2022/05/26 11:52:26;;;;;;;2.73;1.33;;;19.70;48.50;;;;;;5057122;28;20559;-60
2022/05/26 11:55:01;;;;;;;2.10;1.07;;;19.80;47.90;;;;;;5062065;28;20613;-61
2022/05/26 11:57:36;;;;;;;1.20;1.00;;;20.00;47.70;;;;;;5061618;28;20461;-61
2022/05/26 12:00:19;;;;;;;1.23;0.90;;;20.10;46.90;;;;;;5065476;28;20491;-60
2022/05/26 12:02:51;;;;;;;1.00;0.80;;;20.10;46.10;;;;;;5065825;28;20441;-62
2022/05/26 12:05:43;;;;;;;3.53;1.37;;;20.20;46.60;;;;;;5059533;28;20489;-61
2022/05/26 12:08:29;;;;;;;0.80;0.80;;;20.20;46.00;;;;;;5056627;28;20595;-61
2022/05/26 12:11:06;;;;;;;3.33;1.23;;;20.30;45.10;;;;;;5058688;28;20441;-61
2022/05/26 12:13:34;;;;;;;3.23;1.37;;;20.40;45.50;;;;;;5056573;28;20444;-62
2022/05/26 12:16:15;;;;;;;1.10;1.00;;;20.60;46.70;;;;;;5058101;28;20435;-63
2022/05/26 12:18:52;;;;;;;1.07;0.80;;;20.70;45.90;;;;;;5063045;28;20433;-62
2022/05/26 12:21:30;;;;;;;1.87;0.90;;;20.70;45.70;;;;;;5057591;28;20463;-62
2022/05/26 12:23:57;;;;;;;2.47;0.93;;;20.50;46.20;;;;;;5056583;28;20424;-62
2022/05/26 12:26:47;;;;;;;2.20;1.10;;;20.40;46.30;;;;;;5065332;28;21981;-62
2022/05/26 12:29:43;;;;;;;1.93;1.00;;;20.20;46.50;;;;;;5060417;28;20851;-62
2022/05/26 12:32:34;;;;;;;4.77;1.10;;;20.10;46.80;;;;;;5058981;28;20518;-61
2022/05/26 12:35:09;;;;;;;1.33;1.20;;;20.00;46.00;;;;;;5051423;28;20428;-63
2022/05/26 12:37:41;;;;;;;1.37;1.00;;;19.90;46.70;;;;;;5061169;28;20972;-61
2022/05/26 12:40:20;;;;;;;0.97;0.90;;;19.90;47.60;;;;;;5065882;28;20467;-61
2022/05/26 12:42:55;;;;;;;2.10;1.00;;;20.00;47.80;;;;;;5054222;28;20550;-62
2022/05/26 12:45:35;;;;;;;2.10;1.20;;;20.00;47.80;;;;;;5055834;28;20499;-62
2022/05/26 12:48:40;;;;;;;1.57;1.20;;;20.00;48.10;;;;;;5059580;28;20436;-61
2022/05/26 12:51:10;;;;;;;1.60;0.80;;;20.10;47.50;;;;;;5060923;28;20505;-63
2022/05/26 12:53:39;;;;;;;1.40;1.20;;;20.00;45.80;;;;;;5060051;28;20483;-61
2022/05/26 12:56:08;;;;;;;2.33;1.30;;;19.90;47.40;;;;;;5072041;28;21120;-60
2022/05/26 12:58:43;;;;;;;3.60;1.17;;;19.90;47.60;;;;;;5058723;28;20443;-65
2022/05/26 13:01:14;;;;;;;1.60;1.33;;;19.90;47.30;;;;;;5051468;28;20978;-61
2022/05/26 13:03:46;;;;;;;1.30;0.90;;;19.90;46.90;;;;;;5058254;28;21101;-63
2022/05/26 13:06:21;;;;;;;2.33;1.00;;;20.00;48.10;;;;;;5072126;28;20436;-62
2022/05/26 13:09:24;;;;;;;1.17;0.90;;;20.00;48.70;;;;;;5059881;28;20437;-63
2022/05/26 13:11:59;;;;;;;3.50;0.90;;;20.20;49.80;;;;;;5050766;28;20468;-62
2022/05/26 13:14:33;;;;;;;1.17;1.00;;;20.30;49.40;;;;;;5058749;28;20477;-60
2022/05/26 13:17:23;;;;;;;2.00;0.90;;;20.40;49.50;;;;;;5058343;28;20444;-54
2022/05/26 13:20:00;;;;;;;1.83;1.00;;;20.50;48.70;;;;;;5061643;28;20517;-59
2022/05/26 13:22:37;;;;;;;1.43;1.00;;;20.50;47.40;;;;;;5060290;28;20483;-61
2022/05/26 13:25:26;;;;;;;1.80;1.37;;;20.50;47.10;;;;;;5058491;28;20479;-61
2022/05/26 13:28:06;;;;;;;1.13;0.73;;;20.50;47.60;;;;;;5065244;28;20428;-57
2022/05/26 13:33:24;;;;;;;1.13;1.00;;;20.70;46.90;;;;;;5063650;28;20490;-61
2022/05/26 13:35:58;;;;;;;2.50;0.83;;;21.10;47.30;;;;;;5053232;28;20535;-60
2022/05/26 13:38:46;;;;;;;2.70;1.03;;;21.60;47.10;;;;;;5065480;28;20948;-61
2022/05/26 13:41:23;;;;;;;1.00;1.00;;;22.20;45.60;;;;;;5061595;28;20459;-60
2022/05/26 13:43:50;;;;;;;1.40;1.03;;;22.70;44.10;;;;;;5063396;28;20424;-61
2022/05/26 13:46:28;;;;;;;1.63;1.03;;;23.10;44.70;;;;;;5052696;28;21121;-61
2022/05/26 13:48:58;;;;;;;1.47;0.93;;;23.50;44.50;;;;;;5056213;28;20427;-61
2022/05/26 13:51:34;;;;;;;1.67;1.10;;;23.50;43.30;;;;;;5048957;28;20978;-62